Time;durP1;ratioP1;P1;durP2;ratioP2;P2;SDS_P1;SDS_P2;PMS_P1;PMS_P2;Temp;Humidity;BMP_temperature;BMP_pressure;BME280_temperature;BME280_humidity;BME280_pressure;Samples;Min_cycle;Max_cycle;Signal;HPM_P1;HPM_P2
2022/09/13 00:02:00;;;;;;;5.37;4.17;;;;;;;;;;5054359;28;20461;-77
2022/09/13 00:04:28;;;;;;;4.37;4.00;;;;;;;;;;5053543;28;20463;-76
2022/09/13 00:06:55;;;;;;;4.63;4.07;;;;;;;;;;5053853;28;20458;-77
2022/09/13 00:09:22;;;;;;;4.60;4.17;;;;;;;;;;5054036;28;20453;-77
2022/09/13 00:11:49;;;;;;;4.83;3.80;;;;;;;;;;5061114;28;20449;-76
2022/09/13 00:14:16;;;;;;;6.63;4.20;;;;;;;;;;5069512;28;20945;-76
2022/09/13 00:16:43;;;;;;;4.50;4.10;;;;;;;;;;5052384;28;20851;-76
2022/09/13 00:19:10;;;;;;;4.17;3.87;;;;;;;;;;5052333;28;20481;-78
2022/09/13 00:21:39;;;;;;;4.23;3.93;;;;;;;;;;5052895;28;20457;-77
2022/09/13 00:24:06;;;;;;;4.50;4.17;;;;;;;;;;5052621;28;20795;-76
2022/09/13 00:26:33;;;;;;;3.80;3.43;;;;;;;;;;5052248;28;20442;-76
2022/09/13 00:29:00;;;;;;;3.83;3.63;;;;;;;;;;5052095;28;20461;-76
2022/09/13 00:31:27;;;;;;;4.40;4.10;;;;;;;;;;5052407;28;20453;-77
2022/09/13 00:33:55;;;;;;;4.50;4.20;;;;;;;;;;5052031;28;20527;-76
2022/09/13 00:36:22;;;;;;;4.03;3.73;;;;;;;;;;5052660;28;20485;-76
2022/09/13 00:38:51;;;;;;;4.70;4.33;;;;;;;;;;5052012;28;20470;-76
2022/09/13 00:41:19;;;;;;;4.43;4.13;;;;;;;;;;5052631;28;20445;-76
2022/09/13 00:43:48;;;;;;;4.73;4.17;;;;;;;;;;5051832;28;20480;-76
2022/09/13 00:46:17;;;;;;;4.80;4.13;;;;;;;;;;5051881;28;20506;-76
2022/09/13 00:48:46;;;;;;;3.97;3.67;;;;;;;;;;5052177;28;20535;-77
2022/09/13 00:51:14;;;;;;;4.43;4.03;;;;;;;;;;5052176;28;20528;-77
2022/09/13 00:53:44;;;;;;;4.90;4.50;;;;;;;;;;5052070;28;20453;-77
2022/09/13 00:56:15;;;;;;;4.30;4.00;;;;;;;;;;5051683;28;20941;-77
2022/09/13 00:58:44;;;;;;;4.90;4.60;;;;;;;;;;5051655;28;20484;-77
2022/09/13 01:01:13;;;;;;;4.73;4.30;;;;;;;;;;5052041;28;20540;-77
2022/09/13 01:03:41;;;;;;;4.60;4.20;;;;;;;;;;5051259;28;20468;-77
2022/09/13 01:06:10;;;;;;;4.80;4.23;;;;;;;;;;5051372;28;20971;-76
2022/09/13 01:08:38;;;;;;;5.13;4.67;;;;;;;;;;5051376;28;20466;-76
2022/09/13 01:11:07;;;;;;;4.67;4.37;;;;;;;;;;5050938;28;20441;-76
2022/09/13 01:13:35;;;;;;;5.70;4.40;;;;;;;;;;5051161;28;20499;-76
2022/09/13 01:16:02;;;;;;;4.83;4.43;;;;;;;;;;5051565;28;20453;-76
2022/09/13 01:18:29;;;;;;;5.03;4.63;;;;;;;;;;5051071;28;20474;-76
2022/09/13 01:21:11;;;;;;;4.97;4.37;;;;;;;;;;5050819;28;20489;-77
2022/09/13 01:23:44;;;;;;;4.40;4.10;;;;;;;;;;5050675;28;20984;-76
2022/09/13 01:26:35;;;;;;;5.33;4.87;;;;;;;;;;5051877;28;20472;-77
2022/09/13 01:29:11;;;;;;;5.00;4.50;;;;;;;;;;5051684;28;20485;-77
2022/09/13 01:31:45;;;;;;;4.80;4.33;;;;;;;;;;5051558;28;20449;-77
2022/09/13 01:34:19;;;;;;;5.00;4.57;;;;;;;;;;5051026;28;20442;-77
2022/09/13 01:36:53;;;;;;;4.90;4.50;;;;;;;;;;5051480;28;20460;-76
2022/09/13 01:39:25;;;;;;;7.30;4.80;;;;;;;;;;5051342;28;20894;-77
2022/09/13 01:42:01;;;;;;;4.97;4.47;;;;;;;;;;5051397;28;20450;-78
2022/09/13 01:44:35;;;;;;;4.57;4.17;;;;;;;;;;5050901;28;20891;-76
2022/09/13 01:47:08;;;;;;;4.57;4.17;;;;;;;;;;5051058;28;20791;-77
2022/09/13 01:49:43;;;;;;;6.03;5.53;;;;;;;;;;5050778;28;20449;-77
2022/09/13 01:52:15;;;;;;;5.70;5.03;;;;;;;;;;5050532;28;20860;-76
2022/09/13 01:54:48;;;;;;;6.80;5.20;;;;;;;;;;5050100;28;20476;-76
2022/09/13 01:57:18;;;;;;;4.73;4.43;;;;;;;;;;5050351;28;20613;-78
2022/09/13 01:59:49;;;;;;;5.00;4.60;;;;;;;;;;5050860;28;20489;-77
2022/09/13 02:02:19;;;;;;;5.10;4.70;;;;;;;;;;5050370;28;20483;-77
2022/09/13 02:04:49;;;;;;;5.33;4.83;;;;;;;;;;5050445;28;20545;-76
2022/09/13 02:07:18;;;;;;;5.27;4.80;;;;;;;;;;5051022;28;20473;-77
2022/09/13 02:09:47;;;;;;;4.73;4.43;;;;;;;;;;5051663;28;20446;-77
2022/09/13 02:12:16;;;;;;;4.77;4.43;;;;;;;;;;5051137;28;20441;-76
2022/09/13 02:14:44;;;;;;;5.03;4.70;;;;;;;;;;5052356;28;20446;-76
2022/09/13 02:17:14;;;;;;;4.40;4.10;;;;;;;;;;5052187;28;20558;-77
2022/09/13 02:19:44;;;;;;;4.70;4.30;;;;;;;;;;5051087;28;20473;-77
2022/09/13 02:22:14;;;;;;;5.87;5.43;;;;;;;;;;5051399;28;20941;-77
2022/09/13 02:24:42;;;;;;;4.93;4.30;;;;;;;;;;5050627;28;20449;-77
2022/09/13 02:27:12;;;;;;;5.10;4.70;;;;;;;;;;5051333;28;20539;-77
2022/09/13 02:29:40;;;;;;;5.40;4.67;;;;;;;;;;5050856;28;20700;-77
2022/09/13 02:32:10;;;;;;;5.20;4.80;;;;;;;;;;5051394;28;20854;-77
2022/09/13 02:34:39;;;;;;;6.70;4.43;;;;;;;;;;5051442;28;20449;-76
2022/09/13 02:37:08;;;;;;;4.50;4.00;;;;;;;;;;5051527;28;20453;-76
2022/09/13 02:39:37;;;;;;;4.63;4.33;;;;;;;;;;5051390;28;21011;-77
2022/09/13 02:42:07;;;;;;;5.80;4.30;;;;;;;;;;5050365;28;20445;-77
2022/09/13 02:44:37;;;;;;;4.70;4.40;;;;;;;;;;5050079;28;20442;-77
2022/09/13 02:47:07;;;;;;;5.83;5.33;;;;;;;;;;5050239;28;20529;-77
2022/09/13 02:49:39;;;;;;;4.50;4.10;;;;;;;;;;5050163;28;20503;-76
2022/09/13 02:52:10;;;;;;;4.97;4.67;;;;;;;;;;5050040;28;20971;-77
2022/09/13 02:54:38;;;;;;;4.00;3.60;;;;;;;;;;5049831;28;20458;-78
2022/09/13 02:57:08;;;;;;;4.23;3.93;;;;;;;;;;5050311;28;20442;-77
2022/09/13 02:59:35;;;;;;;5.90;4.30;;;;;;;;;;5049945;28;20477;-77
2022/09/13 03:02:04;;;;;;;5.90;4.50;;;;;;;;;;5050495;28;20449;-78
2022/09/13 03:04:32;;;;;;;5.93;4.50;;;;;;;;;;5050919;28;20495;-77
2022/09/13 03:06:59;;;;;;;5.13;4.57;;;;;;;;;;5053022;28;20469;-77
2022/09/13 03:09:27;;;;;;;4.80;4.40;;;;;;;;;;5062171;28;20906;-77
2022/09/13 03:12:12;;;;;;;4.20;3.90;;;;;;;;;;5062674;28;20468;-77
2022/09/13 03:14:43;;;;;;;4.77;4.40;;;;;;;;;;5061482;28;20456;-77
2022/09/13 03:17:24;;;;;;;4.77;4.37;;;;;;;;;;5059387;28;20461;-78
2022/09/13 03:20:05;;;;;;;5.47;5.10;;;;;;;;;;5057716;28;20476;-77
2022/09/13 03:22:43;;;;;;;4.70;4.17;;;;;;;;;;5054123;28;20823;-77
2022/09/13 03:25:15;;;;;;;4.27;3.60;;;;;;;;;;5055412;28;20873;-77
2022/09/13 03:27:48;;;;;;;4.23;3.87;;;;;;;;;;5054118;28;20507;-78
2022/09/13 03:30:16;;;;;;;4.63;3.73;;;;;;;;;;5053553;28;20433;-77
2022/09/13 03:32:47;;;;;;;4.53;4.23;;;;;;;;;;5053699;28;20445;-77
2022/09/13 03:35:17;;;;;;;4.53;4.23;;;;;;;;;;5054090;28;20522;-78
2022/09/13 03:37:48;;;;;;;5.03;4.63;;;;;;;;;;5053652;28;20531;-77
2022/09/13 03:40:19;;;;;;;4.40;4.10;;;;;;;;;;5053271;28;20504;-77
2022/09/13 03:42:48;;;;;;;4.60;4.20;;;;;;;;;;5053594;28;20499;-76
2022/09/13 03:45:17;;;;;;;4.57;4.17;;;;;;;;;;5054017;28;20445;-78
2022/09/13 03:47:45;;;;;;;5.03;4.27;;;;;;;;;;5055559;28;20515;-78
2022/09/13 03:50:16;;;;;;;4.80;4.40;;;;;;;;;;5064353;28;20627;-77
2022/09/13 03:52:44;;;;;;;5.07;4.17;;;;;;;;;;5062273;28;20491;-78
2022/09/13 03:55:11;;;;;;;5.57;4.30;;;;;;;;;;5053560;28;20472;-78
2022/09/13 03:57:39;;;;;;;4.50;4.17;;;;;;;;;;5053619;28;20488;-77
2022/09/13 04:00:07;;;;;;;4.03;3.73;;;;;;;;;;5053525;28;20477;-77
2022/09/13 04:02:34;;;;;;;4.70;4.37;;;;;;;;;;5053402;28;20463;-77
2022/09/13 04:05:01;;;;;;;6.37;4.67;;;;;;;;;;5053342;28;20454;-77
2022/09/13 04:07:28;;;;;;;4.67;4.23;;;;;;;;;;5052910;28;20480;-77
2022/09/13 04:09:55;;;;;;;5.10;4.60;;;;;;;;;;5053327;28;20441;-77
2022/09/13 04:12:23;;;;;;;6.10;5.60;;;;;;;;;;5053047;28;20442;-78
2022/09/13 04:14:52;;;;;;;5.87;5.43;;;;;;;;;;5053051;28;20870;-78
2022/09/13 04:17:19;;;;;;;5.43;5.00;;;;;;;;;;5053637;28;20458;-77
2022/09/13 04:19:46;;;;;;;6.13;4.90;;;;;;;;;;5066967;28;20441;-78
2022/09/13 04:22:14;;;;;;;4.90;4.50;;;;;;;;;;5060759;28;20477;-79
2022/09/13 04:24:42;;;;;;;5.43;5.00;;;;;;;;;;5056822;28;20444;-77
2022/09/13 04:27:09;;;;;;;5.80;5.30;;;;;;;;;;5056306;28;21035;-77
2022/09/13 04:29:36;;;;;;;5.70;4.70;;;;;;;;;;5057352;28;20433;-77
2022/09/13 04:32:05;;;;;;;7.80;7.10;;;;;;;;;;5053375;28;20434;-77
2022/09/13 04:34:32;;;;;;;6.30;5.70;;;;;;;;;;5053170;28;20449;-77
2022/09/13 04:36:59;;;;;;;5.20;4.77;;;;;;;;;;5053140;28;20484;-77
2022/09/13 04:39:26;;;;;;;6.10;5.50;;;;;;;;;;5053289;28;20487;-77
2022/09/13 04:41:54;;;;;;;5.90;4.80;;;;;;;;;;5053113;28;20492;-78
2022/09/13 04:44:23;;;;;;;9.10;5.20;;;;;;;;;;5052251;28;20438;-77
2022/09/13 04:46:50;;;;;;;9.07;5.10;;;;;;;;;;5053352;28;20468;-77
2022/09/13 04:49:20;;;;;;;4.97;4.57;;;;;;;;;;5054387;28;20866;-76
2022/09/13 04:51:48;;;;;;;6.00;5.50;;;;;;;;;;5055086;28;20508;-77
2022/09/13 04:54:15;;;;;;;6.03;5.37;;;;;;;;;;5053832;28;20994;-78
2022/09/13 04:56:42;;;;;;;5.80;5.30;;;;;;;;;;5052626;28;20472;-77
2022/09/13 04:59:10;;;;;;;5.80;5.13;;;;;;;;;;5053038;28;20473;-78
2022/09/13 05:01:38;;;;;;;5.67;5.10;;;;;;;;;;5052277;28;20579;-79
2022/09/13 05:04:06;;;;;;;7.37;5.47;;;;;;;;;;5055174;28;20438;-78
2022/09/13 05:06:35;;;;;;;6.73;6.00;;;;;;;;;;5054710;28;20821;-78
2022/09/13 05:09:02;;;;;;;6.63;5.33;;;;;;;;;;5056300;28;20470;-78
2022/09/13 05:11:29;;;;;;;7.60;5.93;;;;;;;;;;5057771;28;20446;-78
2022/09/13 05:13:57;;;;;;;8.13;6.10;;;;;;;;;;5055162;28;20454;-77
2022/09/13 05:16:24;;;;;;;6.70;5.60;;;;;;;;;;5056139;28;20507;-78
2022/09/13 05:18:52;;;;;;;6.77;5.00;;;;;;;;;;5060071;28;20473;-77
2022/09/13 05:21:20;;;;;;;6.60;5.57;;;;;;;;;;5063495;28;20535;-77
2022/09/13 05:23:50;;;;;;;6.67;5.43;;;;;;;;;;5052655;28;21212;-79
2022/09/13 05:26:18;;;;;;;9.00;5.50;;;;;;;;;;5052839;28;20476;-77
2022/09/13 05:28:45;;;;;;;7.63;5.47;;;;;;;;;;5053416;28;20561;-77
2022/09/13 05:31:14;;;;;;;8.17;5.27;;;;;;;;;;5051914;28;20807;-77
2022/09/13 05:33:41;;;;;;;6.17;5.30;;;;;;;;;;5052487;28;20457;-79
2022/09/13 05:36:08;;;;;;;7.03;5.77;;;;;;;;;;5053920;28;20441;-76
2022/09/13 05:38:35;;;;;;;9.00;5.30;;;;;;;;;;5054229;28;20453;-78
2022/09/13 05:41:04;;;;;;;8.87;5.60;;;;;;;;;;5061565;28;20466;-79
2022/09/13 05:43:32;;;;;;;6.83;5.70;;;;;;;;;;5064044;28;20472;-79
2022/09/13 05:46:02;;;;;;;7.60;5.40;;;;;;;;;;5054607;28;20449;-78
2022/09/13 05:48:29;;;;;;;7.67;5.17;;;;;;;;;;5055281;28;20472;-79
2022/09/13 05:50:57;;;;;;;6.77;5.50;;;;;;;;;;5053395;28;20449;-78
2022/09/13 05:53:24;;;;;;;9.97;5.00;;;;;;;;;;5055322;28;20445;-79
2022/09/13 05:55:51;;;;;;;8.73;4.97;;;;;;;;;;5054770;28;20888;-79
2022/09/13 05:58:19;;;;;;;5.77;5.20;;;;;;;;;;5055365;28;20469;-79
2022/09/13 06:00:46;;;;;;;9.03;5.33;;;;;;;;;;5055130;28;20473;-80
2022/09/13 06:03:13;;;;;;;6.10;5.40;;;;;;;;;;5053215;28;20815;-78
2022/09/13 06:05:40;;;;;;;6.07;5.30;;;;;;;;;;5054147;28;20438;-79
2022/09/13 06:08:07;;;;;;;6.53;5.10;;;;;;;;;;5055069;28;20461;-78
2022/09/13 06:10:34;;;;;;;7.07;5.57;;;;;;;;;;5054375;28;20495;-79
2022/09/13 06:13:01;;;;;;;8.80;4.53;;;;;;;;;;5054553;28;20442;-78
2022/09/13 06:15:29;;;;;;;5.27;4.87;;;;;;;;;;5054340;28;20798;-79
2022/09/13 06:17:57;;;;;;;7.37;5.17;;;;;;;;;;5054861;28;20469;-78
2022/09/13 06:20:24;;;;;;;5.70;5.23;;;;;;;;;;5054585;28;20464;-79
2022/09/13 06:22:51;;;;;;;8.50;4.60;;;;;;;;;;5054110;28;20499;-78
2022/09/13 06:25:18;;;;;;;5.63;4.80;;;;;;;;;;5055067;28;20450;-78
2022/09/13 06:27:45;;;;;;;6.90;5.40;;;;;;;;;;5053098;28;20469;-78
2022/09/13 06:30:14;;;;;;;5.27;4.77;;;;;;;;;;5051872;28;20499;-79
2022/09/13 06:32:42;;;;;;;6.33;4.70;;;;;;;;;;5052865;28;20453;-78
2022/09/13 06:35:10;;;;;;;9.03;4.10;;;;;;;;;;5051761;28;20477;-78
2022/09/13 06:37:37;;;;;;;5.23;4.37;;;;;;;;;;5050936;28;20470;-78
2022/09/13 06:40:05;;;;;;;5.33;4.77;;;;;;;;;;5051530;28;20457;-78
2022/09/13 06:42:33;;;;;;;6.77;4.97;;;;;;;;;;5053970;28;20481;-77
2022/09/13 06:45:00;;;;;;;7.97;5.00;;;;;;;;;;5056506;28;20441;-77
2022/09/13 06:47:27;;;;;;;12.10;8.53;;;;;;;;;;5061146;28;20473;-77
2022/09/13 06:49:56;;;;;;;6.30;5.70;;;;;;;;;;5066524;28;20453;-77
2022/09/13 06:52:23;;;;;;;5.30;4.90;;;;;;;;;;5062120;28;20446;-78
2022/09/13 06:54:50;;;;;;;9.40;5.27;;;;;;;;;;5055683;28;20867;-79
2022/09/13 06:57:17;;;;;;;6.00;5.50;;;;;;;;;;5055459;28;20495;-77
2022/09/13 06:59:44;;;;;;;5.50;5.03;;;;;;;;;;5056379;28;20491;-77
2022/09/13 07:02:12;;;;;;;8.37;5.97;;;;;;;;;;5057380;28;20542;-79
2022/09/13 07:04:39;;;;;;;6.57;4.80;;;;;;;;;;5056203;28;20511;-78
2022/09/13 07:07:07;;;;;;;6.70;5.40;;;;;;;;;;5056069;28;20461;-79
2022/09/13 07:09:34;;;;;;;7.60;5.33;;;;;;;;;;5057030;28;20479;-79
2022/09/13 07:12:01;;;;;;;5.67;5.17;;;;;;;;;;5057544;28;20449;-78
2022/09/13 07:14:29;;;;;;;5.73;5.20;;;;;;;;;;5057991;28;20441;-77
2022/09/13 07:16:56;;;;;;;5.40;4.80;;;;;;;;;;5055312;28;20454;-78
2022/09/13 07:19:25;;;;;;;6.17;5.50;;;;;;;;;;5054587;28;20468;-78
2022/09/13 07:21:52;;;;;;;5.63;5.10;;;;;;;;;;5055139;28;20533;-78
2022/09/13 07:24:21;;;;;;;7.10;5.20;;;;;;;;;;5056571;28;20514;-77
2022/09/13 07:26:49;;;;;;;6.10;5.60;;;;;;;;;;5059893;28;20456;-78
2022/09/13 07:29:18;;;;;;;8.57;5.30;;;;;;;;;;5054791;28;20440;-77
2022/09/13 07:31:46;;;;;;;5.90;5.50;;;;;;;;;;5054494;28;20851;-77
2022/09/13 07:34:14;;;;;;;5.33;4.90;;;;;;;;;;5053824;28;20445;-77
2022/09/13 07:36:41;;;;;;;9.30;5.10;;;;;;;;;;5059572;28;20445;-79
2022/09/13 07:39:09;;;;;;;7.07;4.93;;;;;;;;;;5065678;28;20465;-77
2022/09/13 07:41:37;;;;;;;11.13;5.10;;;;;;;;;;5065315;28;20477;-77
2022/09/13 07:44:06;;;;;;;5.17;4.67;;;;;;;;;;5076213;28;20446;-76
2022/09/13 07:46:35;;;;;;;5.70;4.67;;;;;;;;;;5076840;28;20441;-77
2022/09/13 07:49:02;;;;;;;5.27;4.87;;;;;;;;;;5077331;28;20462;-77
2022/09/13 07:51:31;;;;;;;5.40;4.10;;;;;;;;;;5077413;28;20514;-77
2022/09/13 07:53:58;;;;;;;5.30;4.73;;;;;;;;;;5070878;28;20449;-77
2022/09/13 07:56:26;;;;;;;5.20;4.70;;;;;;;;;;5069570;28;20453;-80
2022/09/13 07:58:55;;;;;;;7.17;5.10;;;;;;;;;;5065838;28;20458;-77
2022/09/13 08:01:23;;;;;;;5.43;4.80;;;;;;;;;;5071900;28;20468;-77
2022/09/13 08:03:53;;;;;;;12.33;5.10;;;;;;;;;;5068930;28;20437;-78
2022/09/13 08:06:20;;;;;;;6.20;4.90;;;;;;;;;;5068498;28;20453;-78
2022/09/13 08:08:47;;;;;;;6.33;5.37;;;;;;;;;;5068531;28;20466;-77
2022/09/13 08:11:16;;;;;;;8.83;5.77;;;;;;;;;;5067796;28;20880;-76
2022/09/13 08:13:43;;;;;;;5.90;5.13;;;;;;;;;;5068184;28;20441;-77
2022/09/13 08:16:12;;;;;;;5.03;4.63;;;;;;;;;;5069990;28;20491;-77
2022/09/13 08:18:44;;;;;;;5.93;4.03;;;;;;;;;;5062477;28;20470;-79
2022/09/13 08:21:11;;;;;;;7.90;5.13;;;;;;;;;;5076759;28;20472;-78
2022/09/13 08:23:38;;;;;;;7.43;4.63;;;;;;;;;;5076274;28;20460;-77
2022/09/13 08:26:06;;;;;;;7.03;4.60;;;;;;;;;;5074795;28;20414;-77
2022/09/13 08:28:34;;;;;;;6.53;4.73;;;;;;;;;;5073841;28;20450;-79
2022/09/13 08:31:05;;;;;;;4.40;3.90;;;;;;;;;;5073530;28;20442;-77
2022/09/13 08:33:33;;;;;;;7.60;3.87;;;;;;;;;;5063532;28;20477;-77
2022/09/13 08:36:00;;;;;;;5.90;4.60;;;;;;;;;;5057955;28;20468;-79
2022/09/13 08:38:28;;;;;;;4.83;4.07;;;;;;;;;;5065955;28;20480;-77
2022/09/13 08:40:56;;;;;;;5.20;4.03;;;;;;;;;;5070754;28;20433;-76
2022/09/13 08:43:30;;;;;;;4.70;4.23;;;;;;;;;;5075953;28;20468;-77
2022/09/13 08:46:00;;;;;;;4.33;4.00;;;;;;;;;;5067522;28;20441;-78
2022/09/13 08:48:32;;;;;;;4.73;3.70;;;;;;;;;;5062028;28;20469;-78
2022/09/13 08:51:04;;;;;;;4.43;4.00;;;;;;;;;;5061139;28;20457;-78
2022/09/13 08:53:32;;;;;;;5.90;3.67;;;;;;;;;;5063192;28;20513;-77
2022/09/13 08:56:03;;;;;;;9.93;3.90;;;;;;;;;;5063163;28;20451;-78
2022/09/13 08:58:48;;;;;;;4.67;4.23;;;;;;;;;;5061968;28;20482;-78
2022/09/13 09:01:21;;;;;;;4.30;3.90;;;;;;;;;;5055635;28;20485;-77
2022/09/13 09:03:53;;;;;;;5.83;3.60;;;;;;;;;;5056321;28;20445;-77
2022/09/13 09:06:22;;;;;;;6.90;3.60;;;;;;;;;;5066861;28;20446;-77
2022/09/13 09:08:50;;;;;;;7.20;3.50;;;;;;;;;;5063009;28;20565;-75
2022/09/13 09:11:23;;;;;;;7.87;4.97;;;;;;;;;;5061427;28;20433;-76
2022/09/13 09:13:51;;;;;;;5.50;4.10;;;;;;;;;;5064617;28;20468;-78
2022/09/13 09:16:27;;;;;;;7.37;3.90;;;;;;;;;;5058314;28;20449;-77
2022/09/13 09:18:55;;;;;;;4.53;4.10;;;;;;;;;;5058500;28;20469;-77
2022/09/13 09:21:23;;;;;;;7.53;4.53;;;;;;;;;;5057981;28;20454;-77
2022/09/13 09:23:51;;;;;;;6.23;4.50;;;;;;;;;;5057424;28;20507;-77
2022/09/13 09:26:19;;;;;;;6.53;4.07;;;;;;;;;;5057551;28;20532;-78
2022/09/13 09:28:47;;;;;;;5.07;3.83;;;;;;;;;;5057887;28;20470;-78
2022/09/13 09:31:16;;;;;;;6.50;3.83;;;;;;;;;;5063794;28;20465;-77
2022/09/13 09:33:52;;;;;;;5.50;3.77;;;;;;;;;;5069381;28;20441;-77
2022/09/13 09:36:21;;;;;;;4.23;3.43;;;;;;;;;;5075090;28;20429;-78
2022/09/13 09:38:50;;;;;;;4.87;4.20;;;;;;;;;;5071404;28;20521;-77
2022/09/13 09:41:24;;;;;;;4.50;3.60;;;;;;;;;;5066277;28;20445;-77
2022/09/13 09:43:54;;;;;;;5.40;3.87;;;;;;;;;;5065978;28;20489;-77
2022/09/13 09:46:29;;;;;;;4.10;3.67;;;;;;;;;;5065528;28;20499;-77
2022/09/13 09:51:59;;;;;;;4.70;3.70;;;;;;;;;;5059586;28;20445;-77
2022/09/13 09:54:33;;;;;;;5.10;2.87;;;;;;;;;;5056724;28;20472;-78
2022/09/13 09:57:01;;;;;;;4.00;3.60;;;;;;;;;;5055761;28;20459;-77
2022/09/13 09:59:38;;;;;;;3.20;2.90;;;;;;;;;;5054845;28;20477;-77
2022/09/13 10:02:15;;;;;;;3.30;2.93;;;;;;;;;;5052751;28;20470;-76
2022/09/13 10:04:55;;;;;;;3.40;3.10;;;;;;;;;;5053621;28;20503;-77
2022/09/13 10:07:25;;;;;;;5.20;3.77;;;;;;;;;;5058984;28;20500;-77
2022/09/13 10:09:58;;;;;;;3.90;3.07;;;;;;;;;;5058853;28;20450;-78
2022/09/13 10:12:27;;;;;;;4.10;3.17;;;;;;;;;;5058234;28;20438;-78
2022/09/13 10:15:04;;;;;;;3.47;3.17;;;;;;;;;;5053168;28;20449;-78
2022/09/13 10:17:34;;;;;;;4.67;3.10;;;;;;;;;;5053489;28;20535;-78
2022/09/13 10:20:25;;;;;;;2.77;2.57;;;;;;;;;;5055770;28;20445;-77
2022/09/13 10:23:16;;;;;;;3.93;2.67;;;;;;;;;;5059798;28;20493;-77
2022/09/13 10:26:05;;;;;;;3.73;2.60;;;;;;;;;;5065286;28;20454;-79
2022/09/13 10:28:35;;;;;;;3.27;2.50;;;;;;;;;;5058090;28;20476;-77
2022/09/13 10:31:13;;;;;;;2.60;2.40;;;;;;;;;;5058404;28;20940;-77
2022/09/13 10:33:41;;;;;;;2.90;2.17;;;;;;;;;;5054040;28;20448;-78
2022/09/13 10:36:12;;;;;;;3.77;1.93;;;;;;;;;;5052407;28;20536;-78
2022/09/13 10:38:40;;;;;;;2.37;2.27;;;;;;;;;;5054581;28;20882;-78
2022/09/13 10:41:10;;;;;;;8.87;2.23;;;;;;;;;;5052137;28;20936;-78
2022/09/13 10:43:38;;;;;;;3.20;2.10;;;;;;;;;;5051090;28;20481;-78
2022/09/13 10:46:06;;;;;;;4.40;2.10;;;;;;;;;;5051818;28;20469;-79
2022/09/13 10:48:44;;;;;;;2.53;1.83;;;;;;;;;;5051400;28;20502;-78
2022/09/13 10:51:21;;;;;;;3.73;2.10;;;;;;;;;;5051484;28;20928;-77
2022/09/13 10:53:48;;;;;;;2.00;1.90;;;;;;;;;;5052497;28;20520;-77
2022/09/13 10:56:21;;;;;;;1.70;1.60;;;;;;;;;;5056727;28;20456;-78
2022/09/13 10:58:48;;;;;;;2.17;2.07;;;;;;;;;;5051555;28;20473;-77
2022/09/13 11:01:22;;;;;;;2.10;1.90;;;;;;;;;;5051125;28;20473;-77
2022/09/13 11:03:59;;;;;;;2.43;1.77;;;;;;;;;;5050623;28;20901;-77
2022/09/13 11:06:29;;;;;;;2.20;1.70;;;;;;;;;;5050758;28;21025;-78
2022/09/13 11:09:02;;;;;;;2.03;1.80;;;;;;;;;;5050888;28;20465;-77
2022/09/13 11:11:33;;;;;;;2.73;2.00;;;;;;;;;;5050685;28;20445;-77
2022/09/13 11:14:10;;;;;;;2.53;2.40;;;;;;;;;;5050769;28;20476;-77
2022/09/13 11:16:44;;;;;;;2.10;1.90;;;;;;;;;;5050762;28;20502;-77
2022/09/13 11:19:19;;;;;;;3.40;2.10;;;;;;;;;;5050670;28;20469;-76
2022/09/13 11:21:50;;;;;;;2.93;1.87;;;;;;;;;;5051310;28;20455;-78
2022/09/13 11:24:28;;;;;;;3.20;2.30;;;;;;;;;;5051209;28;20442;-78
2022/09/13 11:26:59;;;;;;;2.20;1.70;;;;;;;;;;5050667;28;20437;-78
2022/09/13 11:29:33;;;;;;;2.53;2.30;;;;;;;;;;5052914;28;20456;-77
2022/09/13 11:32:04;;;;;;;2.70;1.80;;;;;;;;;;5054971;28;20449;-77
2022/09/13 11:34:37;;;;;;;1.70;1.60;;;;;;;;;;5054911;28;20445;-77
2022/09/13 11:37:31;;;;;;;1.43;1.40;;;;;;;;;;5054952;28;20507;-78
2022/09/13 11:40:05;;;;;;;1.90;1.60;;;;;;;;;;5018813;28;20526;-77
2022/09/13 11:42:41;;;;;;;1.87;1.77;;;;;;;;;;5054019;28;20940;-76
2022/09/13 11:45:29;;;;;;;1.60;1.47;;;;;;;;;;5054560;28;20510;-78
2022/09/13 11:48:03;;;;;;;1.50;1.40;;;;;;;;;;5049374;28;20469;-78
2022/09/13 11:50:36;;;;;;;3.07;1.93;;;;;;;;;;5054314;28;20480;-77
2022/09/13 11:53:12;;;;;;;1.80;1.60;;;;;;;;;;5054258;28;20512;-78
2022/09/13 11:55:42;;;;;;;1.60;1.33;;;;;;;;;;5054965;28;20442;-79
2022/09/13 11:58:14;;;;;;;2.57;1.33;;;;;;;;;;5058871;28;20491;-79
2022/09/13 12:00:42;;;;;;;1.73;1.63;;;;;;;;;;5063393;28;20821;-79
2022/09/13 12:03:15;;;;;;;2.97;1.87;;;;;;;;;;5066291;28;20485;-79
2022/09/13 12:05:47;;;;;;;1.63;1.33;;;;;;;;;;5077742;28;20434;-77
2022/09/13 12:08:16;;;;;;;2.20;1.37;;;;;;;;;;5077510;28;20453;-78
2022/09/13 12:10:46;;;;;;;1.50;1.40;;;;;;;;;;5077537;28;20441;-79
2022/09/13 12:13:17;;;;;;;1.27;1.27;;;;;;;;;;5073356;28;20449;-77
2022/09/13 12:15:45;;;;;;;2.10;1.40;;;;;;;;;;5062340;28;20447;-78
2022/09/13 12:18:15;;;;;;;1.30;1.20;;;;;;;;;;5064095;28;20470;-78
2022/09/13 12:20:43;;;;;;;1.50;1.40;;;;;;;;;;5063270;28;20464;-78
2022/09/13 12:23:13;;;;;;;1.90;1.30;;;;;;;;;;5060013;28;20531;-77
2022/09/13 12:25:44;;;;;;;1.20;1.10;;;;;;;;;;5058978;28;20854;-78
2022/09/13 12:28:17;;;;;;;1.83;1.37;;;;;;;;;;5053898;28;20466;-78
2022/09/13 12:30:50;;;;;;;1.53;1.30;;;;;;;;;;5054079;28;20484;-79
2022/09/13 12:33:17;;;;;;;3.53;1.27;;;;;;;;;;5053877;28;20441;-78
2022/09/13 12:35:49;;;;;;;1.50;1.40;;;;;;;;;;5053737;28;20556;-77
2022/09/13 12:38:28;;;;;;;2.33;1.60;;;;;;;;;;5053258;28;21047;-79
2022/09/13 12:41:02;;;;;;;3.07;1.60;;;;;;;;;;5054145;28;20952;-79
2022/09/13 12:43:39;;;;;;;1.30;1.20;;;;;;;;;;5054255;28;20531;-79
2022/09/13 12:46:16;;;;;;;1.50;1.40;;;;;;;;;;5055032;28;20434;-78
2022/09/13 12:49:01;;;;;;;5.27;1.50;;;;;;;;;;5054117;28;20464;-77
2022/09/13 12:51:35;;;;;;;1.30;1.20;;;;;;;;;;5054118;28;20922;-79
2022/09/13 12:54:09;;;;;;;1.80;1.30;;;;;;;;;;5054857;28;20441;-79
2022/09/13 12:56:43;;;;;;;2.83;1.67;;;;;;;;;;5060946;28;20445;-77
2022/09/13 12:59:20;;;;;;;1.33;1.23;;;;;;;;;;5064774;28;20470;-78
2022/09/13 13:01:50;;;;;;;3.40;1.20;;;;;;;;;;5065537;28;20441;-78
2022/09/13 13:04:19;;;;;;;2.90;1.10;;;;;;;;;;5066239;28;20485;-77
2022/09/13 13:06:50;;;;;;;3.87;1.20;;;;;;;;;;5062967;28;20466;-77
2022/09/13 13:09:27;;;;;;;1.07;1.07;;;;;;;;;;5064126;28;20433;-78
2022/09/13 13:11:54;;;;;;;1.07;1.07;;;;;;;;;;5063742;28;20448;-77
2022/09/13 13:14:43;;;;;;;1.33;1.20;;;;;;;;;;5062452;28;20916;-79
2022/09/13 13:17:29;;;;;;;1.10;1.10;;;;;;;;;;5054713;28;20887;-78
2022/09/13 13:19:57;;;;;;;1.20;1.20;;;;;;;;;;5053885;28;20464;-79
2022/09/13 13:22:43;;;;;;;2.47;1.13;;;;;;;;;;5053966;28;20457;-78
2022/09/13 13:25:29;;;;;;;2.30;1.30;;;;;;;;;;5053407;28;20500;-78
2022/09/13 13:27:57;;;;;;;0.80;0.80;;;;;;;;;;5053657;28;20471;-79
2022/09/13 13:30:55;;;;;;;2.53;1.10;;;;;;;;;;5054013;28;20445;-78
2022/09/13 13:33:28;;;;;;;1.30;1.00;;;;;;;;;;5056450;28;20519;-79
2022/09/13 13:35:56;;;;;;;0.90;0.90;;;;;;;;;;5069156;28;20453;-77
2022/09/13 13:38:43;;;;;;;0.90;0.90;;;;;;;;;;5062007;28;20457;-76
2022/09/13 13:41:25;;;;;;;3.93;1.20;;;;;;;;;;5053445;28;20446;-78
2022/09/13 13:43:53;;;;;;;1.27;1.17;;;;;;;;;;5052869;28;20473;-77
2022/09/13 13:46:30;;;;;;;1.60;0.90;;;;;;;;;;5052359;28;20965;-78
2022/09/13 13:49:18;;;;;;;1.10;1.00;;;;;;;;;;5055441;28;20861;-78
2022/09/13 13:51:47;;;;;;;1.10;1.00;;;;;;;;;;5052564;28;20518;-77
2022/09/13 13:54:30;;;;;;;2.20;1.10;;;;;;;;;;5051447;28;20454;-79
2022/09/13 13:56:57;;;;;;;1.63;0.80;;;;;;;;;;5050950;28;20485;-78
2022/09/13 13:59:26;;;;;;;1.93;1.00;;;;;;;;;;5050903;28;20503;-77
2022/09/13 14:01:58;;;;;;;1.00;0.93;;;;;;;;;;5051817;28;20473;-77
2022/09/13 14:04:45;;;;;;;1.47;0.97;;;;;;;;;;5051438;28;20492;-78
2022/09/13 14:07:20;;;;;;;1.47;1.37;;;;;;;;;;5052067;28;20880;-78
2022/09/13 14:09:53;;;;;;;1.47;1.37;;;;;;;;;;5052280;28;20796;-78
2022/09/13 14:12:34;;;;;;;1.20;1.10;;;;;;;;;;5052608;28;20495;-79
2022/09/13 14:15:17;;;;;;;1.10;1.00;;;;;;;;;;5053122;28;20441;-77
2022/09/13 14:18:04;;;;;;;1.47;0.97;;;;;;;;;;5050546;28;20523;-77
2022/09/13 14:20:31;;;;;;;4.87;1.37;;;;;;;;;;5027212;28;20457;-78
2022/09/13 14:23:18;;;;;;;1.27;1.20;;;;;;;;;;5053533;28;20456;-78
2022/09/13 14:25:46;;;;;;;3.07;1.23;;;;;;;;;;5053841;28;20449;-79
2022/09/13 14:28:15;;;;;;;1.27;0.80;;;;;;;;;;5053379;28;20496;-78
2022/09/13 14:30:42;;;;;;;1.93;1.30;;;;;;;;;;5054765;28;20442;-78
2022/09/13 14:33:19;;;;;;;2.20;1.13;;;;;;;;;;5055462;28;20453;-78
2022/09/13 14:35:46;;;;;;;1.33;1.00;;;;;;;;;;5056544;28;20454;-79
2022/09/13 14:38:18;;;;;;;1.27;1.27;;;;;;;;;;5053066;28;20905;-78
2022/09/13 14:40:49;;;;;;;3.97;1.30;;;;;;;;;;5052539;28;20444;-78
2022/09/13 14:43:17;;;;;;;0.87;0.87;;;;;;;;;;5052016;28;20474;-78
2022/09/13 14:45:46;;;;;;;0.73;0.73;;;;;;;;;;5052476;28;20507;-77
2022/09/13 14:48:18;;;;;;;1.43;0.83;;;;;;;;;;5052441;28;20778;-78
2022/09/13 14:50:49;;;;;;;4.23;1.30;;;;;;;;;;5052873;28;20446;-78
2022/09/13 14:53:17;;;;;;;1.87;0.90;;;;;;;;;;5055773;28;20457;-78
2022/09/13 14:55:46;;;;;;;1.10;1.00;;;;;;;;;;5063449;28;20548;-77
2022/09/13 14:58:18;;;;;;;1.07;0.80;;;;;;;;;;5058048;28;20458;-78
2022/09/13 15:00:50;;;;;;;3.37;1.13;;;;;;;;;;5053365;28;20454;-79
2022/09/13 15:03:18;;;;;;;0.80;0.80;;;;;;;;;;5055617;28;20783;-79
2022/09/13 15:05:51;;;;;;;0.70;0.70;;;;;;;;;;5056147;28;20450;-77
2022/09/13 15:08:37;;;;;;;3.33;1.50;;;;;;;;;;5065186;28;20489;-76